sensor_id;sensor_type;location;lat;lon;timestamp;P1;durP1;ratioP1;P2;durP2;ratioP2
62463;SDS011;48512;48.552;9.380;2022-09-02T00:02:10;7.43;;;3.90;;
62463;SDS011;48512;48.552;9.380;2022-09-02T00:04:36;5.20;;;4.07;;
62463;SDS011;48512;48.552;9.380;2022-09-02T00:07:02;6.63;;;4.07;;
62463;SDS011;48512;48.552;9.380;2022-09-02T00:09:28;4.40;;;4.00;;
62463;SDS011;48512;48.552;9.380;2022-09-02T00:11:54;5.07;;;4.10;;
62463;SDS011;48512;48.552;9.380;2022-09-02T00:14:31;4.65;;;4.07;;
62463;SDS011;48512;48.552;9.380;2022-09-02T00:16:59;6.25;;;4.30;;
62463;SDS011;48512;48.552;9.380;2022-09-02T00:19:26;5.30;;;3.95;;
62463;SDS011;48512;48.552;9.380;2022-09-02T00:21:53;9.55;;;4.25;;
62463;SDS011;48512;48.552;9.380;2022-09-02T00:24:20;7.63;;;3.75;;
62463;SDS011;48512;48.552;9.380;2022-09-02T00:26:46;5.65;;;3.88;;
62463;SDS011;48512;48.552;9.380;2022-09-02T00:29:12;4.70;;;4.10;;
62463;SDS011;48512;48.552;9.380;2022-09-02T00:31:39;4.78;;;4.30;;
62463;SDS011;48512;48.552;9.380;2022-09-02T00:34:07;4.55;;;4.07;;
62463;SDS011;48512;48.552;9.380;2022-09-02T00:36:33;5.18;;;4.13;;
62463;SDS011;48512;48.552;9.380;2022-09-02T00:38:59;4.88;;;4.25;;
62463;SDS011;48512;48.552;9.380;2022-09-02T00:41:25;5.00;;;4.10;;
62463;SDS011;48512;48.552;9.380;2022-09-02T00:43:54;5.43;;;4.20;;
62463;SDS011;48512;48.552;9.380;2022-09-02T00:46:25;4.80;;;4.30;;
62463;SDS011;48512;48.552;9.380;2022-09-02T00:51:27;6.30;;;4.53;;
62463;SDS011;48512;48.552;9.380;2022-09-02T00:53:57;4.63;;;4.10;;
62463;SDS011;48512;48.552;9.380;2022-09-02T00:56:24;6.82;;;4.40;;
62463;SDS011;48512;48.552;9.380;2022-09-02T00:58:51;8.45;;;4.82;;
62463;SDS011;48512;48.552;9.380;2022-09-02T01:01:18;8.00;;;4.55;;
62463;SDS011;48512;48.552;9.380;2022-09-02T01:03:46;5.57;;;4.53;;
62463;SDS011;48512;48.552;9.380;2022-09-02T01:06:12;7.03;;;4.85;;
62463;SDS011;48512;48.552;9.380;2022-09-02T01:08:39;6.60;;;4.53;;
62463;SDS011;48512;48.552;9.380;2022-09-02T01:11:11;4.60;;;4.13;;
62463;SDS011;48512;48.552;9.380;2022-09-02T01:13:39;4.95;;;4.25;;
62463;SDS011;48512;48.552;9.380;2022-09-02T01:18:57;4.65;;;4.15;;
62463;SDS011;48512;48.552;9.380;2022-09-02T01:21:25;4.90;;;4.05;;
62463;SDS011;48512;48.552;9.380;2022-09-02T01:23:50;5.05;;;4.47;;
62463;SDS011;48512;48.552;9.380;2022-09-02T01:26:17;6.35;;;4.32;;
62463;SDS011;48512;48.552;9.380;2022-09-02T01:28:43;5.07;;;4.38;;
62463;SDS011;48512;48.552;9.380;2022-09-02T01:31:09;5.95;;;4.35;;
62463;SDS011;48512;48.552;9.380;2022-09-02T01:33:34;6.32;;;4.53;;
62463;SDS011;48512;48.552;9.380;2022-09-02T01:36:00;5.28;;;4.20;;
62463;SDS011;48512;48.552;9.380;2022-09-02T01:38:29;5.63;;;4.30;;
62463;SDS011;48512;48.552;9.380;2022-09-02T01:40:55;7.22;;;4.30;;
62463;SDS011;48512;48.552;9.380;2022-09-02T01:43:21;5.07;;;4.60;;
62463;SDS011;48512;48.552;9.380;2022-09-02T01:45:50;6.57;;;4.53;;
62463;SDS011;48512;48.552;9.380;2022-09-02T01:48:17;6.45;;;4.65;;
62463;SDS011;48512;48.552;9.380;2022-09-02T01:50:45;5.85;;;4.13;;
62463;SDS011;48512;48.552;9.380;2022-09-02T01:53:14;6.10;;;4.47;;
62463;SDS011;48512;48.552;9.380;2022-09-02T01:55:40;5.82;;;4.45;;
62463;SDS011;48512;48.552;9.380;2022-09-02T01:58:06;5.40;;;4.07;;
62463;SDS011;48512;48.552;9.380;2022-09-02T02:00:32;3.92;;;3.53;;
62463;SDS011;48512;48.552;9.380;2022-09-02T02:02:58;4.57;;;3.60;;
62463;SDS011;48512;48.552;9.380;2022-09-02T02:05:24;4.25;;;3.80;;
62463;SDS011;48512;48.552;9.380;2022-09-02T02:07:49;5.72;;;4.03;;
62463;SDS011;48512;48.552;9.380;2022-09-02T02:10:16;6.72;;;4.10;;
62463;SDS011;48512;48.552;9.380;2022-09-02T02:12:44;5.88;;;4.32;;
62463;SDS011;48512;48.552;9.380;2022-09-02T02:15:11;4.90;;;4.38;;
62463;SDS011;48512;48.552;9.380;2022-09-02T02:17:39;4.80;;;4.20;;
62463;SDS011;48512;48.552;9.380;2022-09-02T02:20:05;5.88;;;4.22;;
62463;SDS011;48512;48.552;9.380;2022-09-02T02:22:32;5.55;;;4.13;;
62463;SDS011;48512;48.552;9.380;2022-09-02T02:24:58;4.38;;;3.95;;
62463;SDS011;48512;48.552;9.380;2022-09-02T02:27:23;5.63;;;3.85;;
62463;SDS011;48512;48.552;9.380;2022-09-02T02:29:48;5.13;;;4.10;;
62463;SDS011;48512;48.552;9.380;2022-09-02T02:32:14;4.93;;;4.03;;
62463;SDS011;48512;48.552;9.380;2022-09-02T02:34:42;4.38;;;3.97;;
62463;SDS011;48512;48.552;9.380;2022-09-02T02:37:08;4.32;;;3.80;;
62463;SDS011;48512;48.552;9.380;2022-09-02T02:39:36;4.20;;;3.80;;
62463;SDS011;48512;48.552;9.380;2022-09-02T02:42:02;5.47;;;3.70;;
62463;SDS011;48512;48.552;9.380;2022-09-02T02:44:27;4.40;;;3.75;;
62463;SDS011;48512;48.552;9.380;2022-09-02T02:46:53;5.45;;;3.75;;
62463;SDS011;48512;48.552;9.380;2022-09-02T02:49:19;5.88;;;3.70;;
62463;SDS011;48512;48.552;9.380;2022-09-02T02:51:44;5.00;;;3.55;;
62463;SDS011;48512;48.552;9.380;2022-09-02T02:54:10;6.45;;;3.67;;
62463;SDS011;48512;48.552;9.380;2022-09-02T02:56:38;7.30;;;3.67;;
62463;SDS011;48512;48.552;9.380;2022-09-02T02:59:04;4.00;;;3.53;;
62463;SDS011;48512;48.552;9.380;2022-09-02T03:01:30;3.70;;;3.30;;
62463;SDS011;48512;48.552;9.380;2022-09-02T03:03:56;3.60;;;3.30;;
62463;SDS011;48512;48.552;9.380;2022-09-02T03:06:21;3.65;;;3.20;;
62463;SDS011;48512;48.552;9.380;2022-09-02T03:08:47;5.93;;;3.30;;
62463;SDS011;48512;48.552;9.380;2022-09-02T03:11:13;4.15;;;3.33;;
62463;SDS011;48512;48.552;9.380;2022-09-02T03:13:40;4.93;;;3.25;;
62463;SDS011;48512;48.552;9.380;2022-09-02T03:16:05;3.70;;;3.20;;
62463;SDS011;48512;48.552;9.380;2022-09-02T03:18:32;3.55;;;3.10;;
62463;SDS011;48512;48.552;9.380;2022-09-02T03:20:58;6.10;;;3.20;;
62463;SDS011;48512;48.552;9.380;2022-09-02T03:23:24;4.55;;;3.20;;
62463;SDS011;48512;48.552;9.380;2022-09-02T03:25:49;3.80;;;3.13;;
62463;SDS011;48512;48.552;9.380;2022-09-02T03:28:15;5.35;;;3.88;;
62463;SDS011;48512;48.552;9.380;2022-09-02T03:30:42;4.95;;;3.38;;
62463;SDS011;48512;48.552;9.380;2022-09-02T03:33:09;8.05;;;3.63;;
62463;SDS011;48512;48.552;9.380;2022-09-02T03:35:37;5.03;;;4.00;;
62463;SDS011;48512;48.552;9.380;2022-09-02T03:38:05;6.15;;;4.20;;
62463;SDS011;48512;48.552;9.380;2022-09-02T03:40:31;4.30;;;3.60;;
62463;SDS011;48512;48.552;9.380;2022-09-02T03:42:56;6.45;;;4.28;;
62463;SDS011;48512;48.552;9.380;2022-09-02T03:45:22;6.65;;;4.45;;
62463;SDS011;48512;48.552;9.380;2022-09-02T03:47:48;4.80;;;3.80;;
62463;SDS011;48512;48.552;9.380;2022-09-02T03:50:21;5.85;;;4.50;;
62463;SDS011;48512;48.552;9.380;2022-09-02T03:52:50;5.35;;;4.05;;
62463;SDS011;48512;48.552;9.380;2022-09-02T03:55:16;5.95;;;4.25;;
62463;SDS011;48512;48.552;9.380;2022-09-02T03:57:43;6.65;;;4.30;;
62463;SDS011;48512;48.552;9.380;2022-09-02T04:00:09;9.60;;;4.60;;
62463;SDS011;48512;48.552;9.380;2022-09-02T04:02:36;6.70;;;4.88;;
62463;SDS011;48512;48.552;9.380;2022-09-02T04:05:01;8.40;;;5.00;;
62463;SDS011;48512;48.552;9.380;2022-09-02T04:07:27;7.82;;;5.03;;
62463;SDS011;48512;48.552;9.380;2022-09-02T04:09:54;6.40;;;4.45;;
62463;SDS011;48512;48.552;9.380;2022-09-02T04:12:20;8.23;;;5.45;;
62463;SDS011;48512;48.552;9.380;2022-09-02T04:14:46;5.75;;;4.60;;
62463;SDS011;48512;48.552;9.380;2022-09-02T04:20:45;7.68;;;4.32;;
62463;SDS011;48512;48.552;9.380;2022-09-02T04:23:30;4.88;;;3.80;;
62463;SDS011;48512;48.552;9.380;2022-09-02T04:25:56;5.95;;;3.90;;
62463;SDS011;48512;48.552;9.380;2022-09-02T04:28:22;5.10;;;4.15;;
62463;SDS011;48512;48.552;9.380;2022-09-02T04:30:48;6.80;;;4.60;;
62463;SDS011;48512;48.552;9.380;2022-09-02T04:33:15;5.93;;;3.80;;
62463;SDS011;48512;48.552;9.380;2022-09-02T04:35:42;5.25;;;4.22;;
62463;SDS011;48512;48.552;9.380;2022-09-02T04:38:09;5.13;;;4.18;;
62463;SDS011;48512;48.552;9.380;2022-09-02T04:40:39;5.88;;;3.85;;
62463;SDS011;48512;48.552;9.380;2022-09-02T04:43:06;6.90;;;4.20;;
62463;SDS011;48512;48.552;9.380;2022-09-02T04:45:32;5.68;;;4.68;;
62463;SDS011;48512;48.552;9.380;2022-09-02T04:47:57;7.28;;;4.43;;
62463;SDS011;48512;48.552;9.380;2022-09-02T04:50:22;7.63;;;4.40;;
62463;SDS011;48512;48.552;9.380;2022-09-02T04:52:48;6.07;;;3.83;;
62463;SDS011;48512;48.552;9.380;2022-09-02T04:55:13;7.65;;;4.65;;
62463;SDS011;48512;48.552;9.380;2022-09-02T04:57:39;6.53;;;4.75;;
62463;SDS011;48512;48.552;9.380;2022-09-02T05:00:05;8.90;;;4.40;;
62463;SDS011;48512;48.552;9.380;2022-09-02T05:02:31;6.75;;;4.57;;
62463;SDS011;48512;48.552;9.380;2022-09-02T05:04:57;7.07;;;4.25;;
62463;SDS011;48512;48.552;9.380;2022-09-02T05:07:23;6.63;;;4.30;;
62463;SDS011;48512;48.552;9.380;2022-09-02T05:09:49;5.60;;;4.07;;
62463;SDS011;48512;48.552;9.380;2022-09-02T05:12:15;7.80;;;4.03;;
62463;SDS011;48512;48.552;9.380;2022-09-02T05:14:42;5.65;;;4.50;;
62463;SDS011;48512;48.552;9.380;2022-09-02T05:17:08;5.75;;;4.40;;
62463;SDS011;48512;48.552;9.380;2022-09-02T05:19:33;7.45;;;4.53;;
62463;SDS011;48512;48.552;9.380;2022-09-02T05:21:59;5.82;;;4.63;;
62463;SDS011;48512;48.552;9.380;2022-09-02T05:24:25;5.53;;;4.30;;
62463;SDS011;48512;48.552;9.380;2022-09-02T05:26:52;6.20;;;4.60;;
62463;SDS011;48512;48.552;9.380;2022-09-02T05:29:17;5.43;;;3.97;;
62463;SDS011;48512;48.552;9.380;2022-09-02T05:31:44;6.75;;;4.35;;
62463;SDS011;48512;48.552;9.380;2022-09-02T05:34:12;7.15;;;4.60;;
62463;SDS011;48512;48.552;9.380;2022-09-02T05:36:38;6.30;;;4.75;;
62463;SDS011;48512;48.552;9.380;2022-09-02T05:39:03;4.90;;;4.40;;
62463;SDS011;48512;48.552;9.380;2022-09-02T05:41:29;8.32;;;4.07;;
62463;SDS011;48512;48.552;9.380;2022-09-02T05:43:55;5.40;;;4.63;;
62463;SDS011;48512;48.552;9.380;2022-09-02T05:46:24;7.45;;;4.93;;
62463;SDS011;48512;48.552;9.380;2022-09-02T05:48:50;9.82;;;5.03;;
62463;SDS011;48512;48.552;9.380;2022-09-02T05:54:08;7.18;;;4.57;;
62463;SDS011;48512;48.552;9.380;2022-09-02T05:56:37;4.88;;;4.07;;
62463;SDS011;48512;48.552;9.380;2022-09-02T05:59:03;5.35;;;4.50;;
62463;SDS011;48512;48.552;9.380;2022-09-02T06:01:30;7.55;;;4.72;;
62463;SDS011;48512;48.552;9.380;2022-09-02T06:03:56;7.13;;;5.30;;
62463;SDS011;48512;48.552;9.380;2022-09-02T06:06:22;8.68;;;4.85;;
62463;SDS011;48512;48.552;9.380;2022-09-02T06:08:49;10.45;;;4.97;;
62463;SDS011;48512;48.552;9.380;2022-09-02T06:11:14;5.30;;;4.30;;
62463;SDS011;48512;48.552;9.380;2022-09-02T06:13:41;6.57;;;4.50;;
62463;SDS011;48512;48.552;9.380;2022-09-02T06:16:08;7.57;;;5.10;;
62463;SDS011;48512;48.552;9.380;2022-09-02T06:18:37;6.68;;;4.82;;
62463;SDS011;48512;48.552;9.380;2022-09-02T06:21:03;7.82;;;4.85;;
62463;SDS011;48512;48.552;9.380;2022-09-02T06:23:30;7.53;;;5.30;;
62463;SDS011;48512;48.552;9.380;2022-09-02T06:25:58;7.68;;;4.63;;
62463;SDS011;48512;48.552;9.380;2022-09-02T06:28:23;6.72;;;4.53;;
62463;SDS011;48512;48.552;9.380;2022-09-02T06:30:49;6.72;;;4.82;;
62463;SDS011;48512;48.552;9.380;2022-09-02T06:33:14;8.27;;;4.30;;
62463;SDS011;48512;48.552;9.380;2022-09-02T06:35:42;6.72;;;3.92;;
62463;SDS011;48512;48.552;9.380;2022-09-02T06:38:09;6.00;;;4.63;;
62463;SDS011;48512;48.552;9.380;2022-09-02T06:40:36;5.50;;;4.20;;
62463;SDS011;48512;48.552;9.380;2022-09-02T06:43:09;8.48;;;4.50;;
62463;SDS011;48512;48.552;9.380;2022-09-02T06:45:38;8.13;;;4.40;;
62463;SDS011;48512;48.552;9.380;2022-09-02T06:50:30;5.50;;;4.68;;
62463;SDS011;48512;48.552;9.380;2022-09-02T06:52:55;7.22;;;4.82;;
62463;SDS011;48512;48.552;9.380;2022-09-02T06:55:20;6.35;;;4.43;;
62463;SDS011;48512;48.552;9.380;2022-09-02T06:57:46;6.95;;;4.13;;
62463;SDS011;48512;48.552;9.380;2022-09-02T07:00:11;4.53;;;4.05;;
62463;SDS011;48512;48.552;9.380;2022-09-02T07:02:37;7.18;;;4.97;;
62463;SDS011;48512;48.552;9.380;2022-09-02T07:05:03;6.38;;;4.60;;
62463;SDS011;48512;48.552;9.380;2022-09-02T07:07:35;6.13;;;4.78;;
62463;SDS011;48512;48.552;9.380;2022-09-02T07:10:05;5.93;;;4.68;;
62463;SDS011;48512;48.552;9.380;2022-09-02T07:12:33;6.28;;;4.78;;
62463;SDS011;48512;48.552;9.380;2022-09-02T07:15:00;7.25;;;4.88;;
62463;SDS011;48512;48.552;9.380;2022-09-02T07:17:26;6.22;;;4.63;;
62463;SDS011;48512;48.552;9.380;2022-09-02T07:19:52;8.18;;;4.80;;
62463;SDS011;48512;48.552;9.380;2022-09-02T07:22:19;4.97;;;3.70;;
62463;SDS011;48512;48.552;9.380;2022-09-02T07:24:45;7.15;;;4.45;;
62463;SDS011;48512;48.552;9.380;2022-09-02T07:27:11;6.85;;;4.45;;
62463;SDS011;48512;48.552;9.380;2022-09-02T07:29:36;7.20;;;4.00;;
62463;SDS011;48512;48.552;9.380;2022-09-02T07:32:02;3.83;;;3.47;;
62463;SDS011;48512;48.552;9.380;2022-09-02T07:34:28;5.55;;;4.22;;
62463;SDS011;48512;48.552;9.380;2022-09-02T07:36:54;5.68;;;3.60;;
62463;SDS011;48512;48.552;9.380;2022-09-02T07:39:19;5.78;;;3.70;;
62463;SDS011;48512;48.552;9.380;2022-09-02T07:41:46;5.30;;;3.80;;
62463;SDS011;48512;48.552;9.380;2022-09-02T07:44:14;7.25;;;4.50;;
62463;SDS011;48512;48.552;9.380;2022-09-02T07:46:41;5.40;;;3.58;;
62463;SDS011;48512;48.552;9.380;2022-09-02T07:49:08;6.53;;;3.63;;
62463;SDS011;48512;48.552;9.380;2022-09-02T07:51:35;6.13;;;3.53;;
62463;SDS011;48512;48.552;9.380;2022-09-02T07:54:04;3.67;;;3.35;;
62463;SDS011;48512;48.552;9.380;2022-09-02T07:56:30;5.28;;;3.60;;
62463;SDS011;48512;48.552;9.380;2022-09-02T07:58:56;10.90;;;4.80;;
62463;SDS011;48512;48.552;9.380;2022-09-02T08:01:21;6.63;;;4.30;;
62463;SDS011;48512;48.552;9.380;2022-09-02T08:03:47;10.75;;;4.72;;
62463;SDS011;48512;48.552;9.380;2022-09-02T08:06:13;6.20;;;4.38;;
62463;SDS011;48512;48.552;9.380;2022-09-02T08:08:39;7.63;;;4.43;;
62463;SDS011;48512;48.552;9.380;2022-09-02T08:11:05;5.95;;;4.03;;
62463;SDS011;48512;48.552;9.380;2022-09-02T08:13:31;6.75;;;3.50;;
62463;SDS011;48512;48.552;9.380;2022-09-02T08:15:57;4.78;;;4.05;;
62463;SDS011;48512;48.552;9.380;2022-09-02T08:18:23;4.93;;;3.95;;
62463;SDS011;48512;48.552;9.380;2022-09-02T08:20:49;5.30;;;3.80;;
62463;SDS011;48512;48.552;9.380;2022-09-02T08:23:15;5.80;;;3.20;;
62463;SDS011;48512;48.552;9.380;2022-09-02T08:25:41;4.43;;;3.10;;
62463;SDS011;48512;48.552;9.380;2022-09-02T08:28:07;4.07;;;3.10;;
62463;SDS011;48512;48.552;9.380;2022-09-02T08:30:33;3.47;;;3.00;;
62463;SDS011;48512;48.552;9.380;2022-09-02T08:32:59;3.50;;;3.20;;
62463;SDS011;48512;48.552;9.380;2022-09-02T08:35:24;3.83;;;3.45;;
62463;SDS011;48512;48.552;9.380;2022-09-02T08:37:50;7.43;;;4.00;;
62463;SDS011;48512;48.552;9.380;2022-09-02T08:40:16;8.50;;;2.80;;
62463;SDS011;48512;48.552;9.380;2022-09-02T08:42:53;4.47;;;2.80;;
62463;SDS011;48512;48.552;9.380;2022-09-02T08:45:22;3.90;;;2.78;;
62463;SDS011;48512;48.552;9.380;2022-09-02T08:50:39;5.30;;;2.78;;
62463;SDS011;48512;48.552;9.380;2022-09-02T08:53:10;2.97;;;2.55;;
62463;SDS011;48512;48.552;9.380;2022-09-02T08:55:43;4.15;;;2.97;;
62463;SDS011;48512;48.552;9.380;2022-09-02T08:58:15;7.63;;;3.55;;
62463;SDS011;48512;48.552;9.380;2022-09-02T09:00:42;4.78;;;3.13;;
62463;SDS011;48512;48.552;9.380;2022-09-02T09:03:28;3.58;;;2.80;;
62463;SDS011;48512;48.552;9.380;2022-09-02T09:06:06;3.17;;;2.63;;
62463;SDS011;48512;48.552;9.380;2022-09-02T09:14:07;4.70;;;2.90;;
62463;SDS011;48512;48.552;9.380;2022-09-02T09:19:13;3.45;;;2.78;;
62463;SDS011;48512;48.552;9.380;2022-09-02T09:22:00;3.63;;;2.88;;
62463;SDS011;48512;48.552;9.380;2022-09-02T09:24:40;7.50;;;2.78;;
62463;SDS011;48512;48.552;9.380;2022-09-02T09:27:09;4.60;;;2.75;;
62463;SDS011;48512;48.552;9.380;2022-09-02T09:29:38;3.97;;;2.70;;
62463;SDS011;48512;48.552;9.380;2022-09-02T09:32:05;4.55;;;2.70;;
62463;SDS011;48512;48.552;9.380;2022-09-02T09:42:47;4.00;;;3.15;;
62463;SDS011;48512;48.552;9.380;2022-09-02T09:50:43;2.75;;;2.35;;
62463;SDS011;48512;48.552;9.380;2022-09-02T09:53:13;3.63;;;2.55;;
62463;SDS011;48512;48.552;9.380;2022-09-02T09:58:50;5.85;;;3.53;;
62463;SDS011;48512;48.552;9.380;2022-09-02T10:06:24;5.82;;;2.80;;
62463;SDS011;48512;48.552;9.380;2022-09-02T10:09:06;4.03;;;2.90;;
62463;SDS011;48512;48.552;9.380;2022-09-02T10:14:23;3.30;;;3.00;;
62463;SDS011;48512;48.552;9.380;2022-09-02T10:30:22;3.97;;;2.97;;
62463;SDS011;48512;48.552;9.380;2022-09-02T10:41:09;5.30;;;3.20;;
62463;SDS011;48512;48.552;9.380;2022-09-02T10:44:03;5.95;;;3.20;;
62463;SDS011;48512;48.552;9.380;2022-09-02T10:50:03;3.65;;;3.00;;
62463;SDS011;48512;48.552;9.380;2022-09-02T10:58:26;5.75;;;3.42;;
62463;SDS011;48512;48.552;9.380;2022-09-02T11:00:54;3.00;;;2.70;;
62463;SDS011;48512;48.552;9.380;2022-09-02T11:06:20;5.80;;;3.50;;
62463;SDS011;48512;48.552;9.380;2022-09-02T11:08:51;4.35;;;2.95;;
62463;SDS011;48512;48.552;9.380;2022-09-02T11:11:20;5.32;;;2.70;;
62463;SDS011;48512;48.552;9.380;2022-09-02T11:14:08;3.45;;;2.60;;
62463;SDS011;48512;48.552;9.380;2022-09-02T11:16:40;3.83;;;3.10;;
62463;SDS011;48512;48.552;9.380;2022-09-02T11:19:27;3.90;;;2.50;;
62463;SDS011;48512;48.552;9.380;2022-09-02T11:27:51;5.93;;;2.78;;
62463;SDS011;48512;48.552;9.380;2022-09-02T11:30:30;6.20;;;2.80;;
62463;SDS011;48512;48.552;9.380;2022-09-02T11:33:20;4.40;;;2.53;;
62463;SDS011;48512;48.552;9.380;2022-09-02T11:35:53;2.50;;;2.30;;
62463;SDS011;48512;48.552;9.380;2022-09-02T11:43:41;2.97;;;2.70;;
62463;SDS011;48512;48.552;9.380;2022-09-02T11:54:22;3.10;;;2.50;;
62463;SDS011;48512;48.552;9.380;2022-09-02T11:56:53;4.18;;;2.50;;
62463;SDS011;48512;48.552;9.380;2022-09-02T12:18:41;2.70;;;2.17;;
62463;SDS011;48512;48.552;9.380;2022-09-02T12:21:08;4.00;;;2.22;;
62463;SDS011;48512;48.552;9.380;2022-09-02T12:26:21;2.75;;;2.33;;
62463;SDS011;48512;48.552;9.380;2022-09-02T12:28:48;2.70;;;2.10;;
62463;SDS011;48512;48.552;9.380;2022-09-02T12:31:17;3.03;;;2.15;;
62463;SDS011;48512;48.552;9.380;2022-09-02T12:36:44;4.73;;;2.20;;
62463;SDS011;48512;48.552;9.380;2022-09-02T12:52:47;2.95;;;2.17;;
62463;SDS011;48512;48.552;9.380;2022-09-02T12:57:49;4.28;;;2.10;;
62463;SDS011;48512;48.552;9.380;2022-09-02T13:00:25;2.95;;;2.00;;
62463;SDS011;48512;48.552;9.380;2022-09-02T13:30:19;4.07;;;2.10;;
62463;SDS011;48512;48.552;9.380;2022-09-02T13:32:55;2.97;;;2.10;;
62463;SDS011;48512;48.552;9.380;2022-09-02T13:35:28;2.20;;;1.80;;
62463;SDS011;48512;48.552;9.380;2022-09-02T13:37:57;5.97;;;1.88;;
62463;SDS011;48512;48.552;9.380;2022-09-02T13:42:55;3.40;;;1.98;;
62463;SDS011;48512;48.552;9.380;2022-09-02T13:45:23;3.03;;;1.73;;
62463;SDS011;48512;48.552;9.380;2022-09-02T13:47:54;4.63;;;1.85;;
62463;SDS011;48512;48.552;9.380;2022-09-02T13:50:22;2.70;;;2.40;;
62463;SDS011;48512;48.552;9.380;2022-09-02T13:52:51;2.83;;;1.88;;
62463;SDS011;48512;48.552;9.380;2022-09-02T13:55:19;3.15;;;1.88;;
62463;SDS011;48512;48.552;9.380;2022-09-02T13:57:49;3.03;;;1.90;;
62463;SDS011;48512;48.552;9.380;2022-09-02T14:00:27;2.78;;;1.80;;
62463;SDS011;48512;48.552;9.380;2022-09-02T14:03:12;2.10;;;1.90;;
62463;SDS011;48512;48.552;9.380;2022-09-02T14:05:42;3.35;;;2.08;;
62463;SDS011;48512;48.552;9.380;2022-09-02T14:10:39;2.95;;;1.88;;
62463;SDS011;48512;48.552;9.380;2022-09-02T14:13:06;1.75;;;1.65;;
62463;SDS011;48512;48.552;9.380;2022-09-02T14:15:33;4.25;;;1.98;;
62463;SDS011;48512;48.552;9.380;2022-09-02T14:18:05;8.32;;;1.95;;
62463;SDS011;48512;48.552;9.380;2022-09-02T14:20:31;6.13;;;1.90;;
62463;SDS011;48512;48.552;9.380;2022-09-02T14:22:57;3.08;;;1.77;;
62463;SDS011;48512;48.552;9.380;2022-09-02T14:25:28;4.55;;;1.88;;
62463;SDS011;48512;48.552;9.380;2022-09-02T14:27:58;8.27;;;2.10;;
62463;SDS011;48512;48.552;9.380;2022-09-02T14:38:24;2.08;;;1.77;;
62463;SDS011;48512;48.552;9.380;2022-09-02T14:40:58;2.22;;;1.77;;
62463;SDS011;48512;48.552;9.380;2022-09-02T14:43:24;4.07;;;2.20;;
62463;SDS011;48512;48.552;9.380;2022-09-02T14:45:51;4.63;;;2.03;;
62463;SDS011;48512;48.552;9.380;2022-09-02T14:48:29;2.75;;;1.90;;
62463;SDS011;48512;48.552;9.380;2022-09-02T14:51:02;4.60;;;2.25;;
62463;SDS011;48512;48.552;9.380;2022-09-02T14:53:30;2.58;;;1.70;;
62463;SDS011;48512;48.552;9.380;2022-09-02T14:55:58;4.07;;;1.70;;
62463;SDS011;48512;48.552;9.380;2022-09-02T14:58:25;4.45;;;1.92;;
62463;SDS011;48512;48.552;9.380;2022-09-02T15:00:52;3.40;;;1.70;;
62463;SDS011;48512;48.552;9.380;2022-09-02T15:03:20;3.90;;;1.73;;
62463;SDS011;48512;48.552;9.380;2022-09-02T15:05:46;2.05;;;1.70;;
62463;SDS011;48512;48.552;9.380;2022-09-02T15:08:12;3.67;;;2.10;;
62463;SDS011;48512;48.552;9.380;2022-09-02T15:10:39;2.55;;;1.73;;
62463;SDS011;48512;48.552;9.380;2022-09-02T15:13:20;6.47;;;1.60;;
62463;SDS011;48512;48.552;9.380;2022-09-02T15:15:51;3.08;;;1.58;;
62463;SDS011;48512;48.552;9.380;2022-09-02T15:18:19;2.67;;;1.70;;
62463;SDS011;48512;48.552;9.380;2022-09-02T15:20:44;3.50;;;2.50;;
62463;SDS011;48512;48.552;9.380;2022-09-02T15:23:10;2.80;;;2.20;;
62463;SDS011;48512;48.552;9.380;2022-09-02T15:25:35;3.83;;;2.00;;
62463;SDS011;48512;48.552;9.380;2022-09-02T15:28:01;1.63;;;1.52;;
62463;SDS011;48512;48.552;9.380;2022-09-02T15:30:27;2.58;;;1.80;;
62463;SDS011;48512;48.552;9.380;2022-09-02T15:32:52;5.13;;;2.28;;
62463;SDS011;48512;48.552;9.380;2022-09-02T15:35:18;3.72;;;1.95;;
62463;SDS011;48512;48.552;9.380;2022-09-02T15:37:43;2.53;;;1.70;;
62463;SDS011;48512;48.552;9.380;2022-09-02T15:40:09;2.08;;;1.80;;
62463;SDS011;48512;48.552;9.380;2022-09-02T15:42:35;3.42;;;1.80;;
62463;SDS011;48512;48.552;9.380;2022-09-02T15:45:02;1.92;;;1.60;;
62463;SDS011;48512;48.552;9.380;2022-09-02T15:47:29;2.13;;;1.63;;
62463;SDS011;48512;48.552;9.380;2022-09-02T15:49:55;3.05;;;1.73;;
62463;SDS011;48512;48.552;9.380;2022-09-02T15:52:23;3.05;;;1.70;;
62463;SDS011;48512;48.552;9.380;2022-09-02T15:54:49;5.78;;;2.00;;
62463;SDS011;48512;48.552;9.380;2022-09-02T15:57:17;3.50;;;1.80;;
62463;SDS011;48512;48.552;9.380;2022-09-02T15:59:42;2.60;;;1.70;;
62463;SDS011;48512;48.552;9.380;2022-09-02T16:02:08;3.30;;;1.75;;
62463;SDS011;48512;48.552;9.380;2022-09-02T16:04:33;1.80;;;1.70;;
62463;SDS011;48512;48.552;9.380;2022-09-02T16:06:59;2.35;;;1.70;;
62463;SDS011;48512;48.552;9.380;2022-09-02T16:09:25;4.93;;;1.88;;
62463;SDS011;48512;48.552;9.380;2022-09-02T16:11:52;3.88;;;1.70;;
62463;SDS011;48512;48.552;9.380;2022-09-02T16:14:20;2.25;;;1.75;;
62463;SDS011;48512;48.552;9.380;2022-09-02T16:16:47;2.95;;;2.17;;
62463;SDS011;48512;48.552;9.380;2022-09-02T16:19:13;4.43;;;2.30;;
62463;SDS011;48512;48.552;9.380;2022-09-02T16:21:39;3.65;;;2.15;;
62463;SDS011;48512;48.552;9.380;2022-09-02T16:24:07;2.95;;;1.90;;
62463;SDS011;48512;48.552;9.380;2022-09-02T16:26:34;7.82;;;1.98;;
62463;SDS011;48512;48.552;9.380;2022-09-02T16:31:32;4.45;;;2.65;;
62463;SDS011;48512;48.552;9.380;2022-09-02T16:34:09;3.50;;;2.33;;
62463;SDS011;48512;48.552;9.380;2022-09-02T16:36:40;2.55;;;1.70;;
62463;SDS011;48512;48.552;9.380;2022-09-02T16:39:07;2.92;;;2.00;;
62463;SDS011;48512;48.552;9.380;2022-09-02T16:41:36;2.50;;;2.30;;
62463;SDS011;48512;48.552;9.380;2022-09-02T16:44:13;3.63;;;2.33;;
62463;SDS011;48512;48.552;9.380;2022-09-02T16:46:41;3.80;;;1.95;;
62463;SDS011;48512;48.552;9.380;2022-09-02T16:49:07;3.00;;;2.10;;
62463;SDS011;48512;48.552;9.380;2022-09-02T16:51:34;2.25;;;1.85;;
62463;SDS011;48512;48.552;9.380;2022-09-02T16:54:00;4.00;;;1.90;;
62463;SDS011;48512;48.552;9.380;2022-09-02T16:56:28;4.88;;;1.90;;
62463;SDS011;48512;48.552;9.380;2022-09-02T16:58:54;2.63;;;2.03;;
62463;SDS011;48512;48.552;9.380;2022-09-02T17:01:23;3.25;;;2.10;;
62463;SDS011;48512;48.552;9.380;2022-09-02T17:03:48;2.15;;;1.95;;
62463;SDS011;48512;48.552;9.380;2022-09-02T17:06:14;6.53;;;2.97;;
62463;SDS011;48512;48.552;9.380;2022-09-02T17:08:40;6.07;;;2.58;;
62463;SDS011;48512;48.552;9.380;2022-09-02T17:13:35;4.28;;;1.85;;
62463;SDS011;48512;48.552;9.380;2022-09-02T17:16:00;4.88;;;2.17;;
62463;SDS011;48512;48.552;9.380;2022-09-02T17:18:26;4.07;;;1.95;;
62463;SDS011;48512;48.552;9.380;2022-09-02T17:20:51;2.63;;;1.80;;
62463;SDS011;48512;48.552;9.380;2022-09-02T17:23:42;2.70;;;2.22;;
62463;SDS011;48512;48.552;9.380;2022-09-02T17:26:08;6.15;;;3.55;;
62463;SDS011;48512;48.552;9.380;2022-09-02T17:28:33;4.90;;;4.03;;
62463;SDS011;48512;48.552;9.380;2022-09-02T17:30:59;6.60;;;3.22;;
62463;SDS011;48512;48.552;9.380;2022-09-02T17:33:24;3.60;;;2.70;;
62463;SDS011;48512;48.552;9.380;2022-09-02T17:35:53;2.80;;;2.22;;
62463;SDS011;48512;48.552;9.380;2022-09-02T17:38:19;3.47;;;2.33;;
62463;SDS011;48512;48.552;9.380;2022-09-02T17:40:45;4.28;;;2.40;;
62463;SDS011;48512;48.552;9.380;2022-09-02T17:43:29;3.38;;;2.50;;
62463;SDS011;48512;48.552;9.380;2022-09-02T17:46:03;4.35;;;3.53;;
62463;SDS011;48512;48.552;9.380;2022-09-02T17:48:29;8.75;;;6.03;;
62463;SDS011;48512;48.552;9.380;2022-09-02T17:50:55;7.55;;;5.13;;
62463;SDS011;48512;48.552;9.380;2022-09-02T17:53:20;3.92;;;2.75;;
62463;SDS011;48512;48.552;9.380;2022-09-02T17:55:47;4.70;;;2.80;;
62463;SDS011;48512;48.552;9.380;2022-09-02T17:58:17;3.53;;;2.60;;
62463;SDS011;48512;48.552;9.380;2022-09-02T18:00:45;3.10;;;2.67;;
62463;SDS011;48512;48.552;9.380;2022-09-02T18:08:37;4.95;;;2.97;;